Time;durP1;ratioP1;P1;durP2;ratioP2;P2;SDS_P1;SDS_P2;PMS_P1;PMS_P2;Temp;Humidity;BMP_temperature;BMP_pressure;BME280_temperature;BME280_humidity;BME280_pressure;Samples;Min_cycle;Max_cycle;Signal;HPM_P1;HPM_P2
2021/07/31 00:00:04;;;;;;;26.00;4.57;;;17.10;99.90;;;;;;2107468;28;20537;-64
2021/07/31 00:01:08;;;;;;;25.83;5.18;;;17.10;99.90;;;;;;2111636;28;20020;-64
2021/07/31 00:02:08;;;;;;;24.88;4.63;;;17.10;99.90;;;;;;2127883;27;20756;-65
2021/07/31 00:03:09;;;;;;;27.38;4.70;;;17.10;99.90;;;;;;2128369;27;20019;-64
2021/07/31 00:04:10;;;;;;;26.35;5.18;;;17.10;99.90;;;;;;2129273;27;20055;-65
2021/07/31 00:05:11;;;;;;;25.98;5.38;;;17.10;99.90;;;;;;2128803;27;20018;-65
2021/07/31 00:06:11;;;;;;;31.60;6.35;;;17.10;99.90;;;;;;2129399;27;20010;-65
2021/07/31 00:07:12;;;;;;;31.90;4.82;;;17.10;99.90;;;;;;2129128;27;20616;-64
2021/07/31 00:08:13;;;;;;;33.55;5.53;;;17.10;99.90;;;;;;2129176;27;20517;-64
2021/07/31 00:09:13;;;;;;;33.25;5.25;;;17.10;99.90;;;;;;2120649;27;20510;-65
2021/07/31 00:10:14;;;;;;;28.70;5.07;;;17.10;99.90;;;;;;2122375;27;20051;-64
2021/07/31 00:11:15;;;;;;;26.70;5.03;;;17.10;99.90;;;;;;2122305;27;20023;-64
2021/07/31 00:12:15;;;;;;;28.83;4.63;;;17.10;99.90;;;;;;2123772;27;20077;-65
2021/07/31 00:13:16;;;;;;;24.65;4.35;;;17.10;99.90;;;;;;2125591;27;20647;-65
2021/07/31 00:14:17;;;;;;;35.03;5.47;;;17.10;99.90;;;;;;2113964;28;20031;-65
2021/07/31 00:15:18;;;;;;;35.78;5.57;;;17.10;99.90;;;;;;2114369;28;20035;-65
2021/07/31 00:16:19;;;;;;;25.45;4.93;;;17.00;99.90;;;;;;2110534;28;20020;-66
2021/07/31 00:17:20;;;;;;;38.63;5.68;;;17.00;99.90;;;;;;2107410;28;20011;-65
2021/07/31 00:18:21;;;;;;;44.92;5.80;;;17.00;99.90;;;;;;2105649;28;20017;-65
2021/07/31 00:19:21;;;;;;;23.95;5.35;;;17.00;99.90;;;;;;2111627;28;20027;-65
2021/07/31 00:20:22;;;;;;;24.17;4.47;;;16.90;99.90;;;;;;2123326;27;20115;-65
2021/07/31 00:21:23;;;;;;;22.88;3.92;;;16.90;99.90;;;;;;2111596;28;20028;-65
2021/07/31 00:22:24;;;;;;;21.25;4.95;;;16.90;99.90;;;;;;2113564;28;20020;-65
2021/07/31 00:23:27;;;;;;;25.52;4.35;;;16.90;99.90;;;;;;2116998;27;20023;-65
2021/07/31 00:24:29;;;;;;;34.22;5.13;;;16.90;99.90;;;;;;2123156;27;20415;-65
2021/07/31 00:25:30;;;;;;;27.70;4.30;;;16.80;99.90;;;;;;2116043;27;20028;-64
2021/07/31 00:26:30;;;;;;;30.17;5.32;;;16.80;99.90;;;;;;2114837;28;20052;-64
2021/07/31 00:27:31;;;;;;;30.13;4.57;;;16.80;99.90;;;;;;2117769;27;20682;-64
2021/07/31 00:28:32;;;;;;;39.15;5.38;;;16.80;99.90;;;;;;2123320;27;20094;-65
2021/07/31 00:29:32;;;;;;;35.28;4.97;;;16.80;99.90;;;;;;2123259;27;20031;-64
2021/07/31 00:30:33;;;;;;;25.20;4.00;;;16.80;99.90;;;;;;2119386;27;20042;-64
2021/07/31 00:31:34;;;;;;;30.35;5.05;;;16.80;99.90;;;;;;2113995;28;20023;-64
2021/07/31 00:32:34;;;;;;;30.88;5.07;;;16.80;99.90;;;;;;2111345;28;20019;-66
2021/07/31 00:33:35;;;;;;;29.63;4.55;;;16.80;99.90;;;;;;2112979;27;20024;-64
2021/07/31 00:34:36;;;;;;;23.02;4.70;;;16.80;99.90;;;;;;2111370;28;20387;-64
2021/07/31 00:35:37;;;;;;;27.52;4.95;;;16.80;99.90;;;;;;2111209;28;20028;-66
2021/07/31 00:36:37;;;;;;;25.92;4.03;;;16.80;99.90;;;;;;2114016;28;20043;-64
2021/07/31 00:37:38;;;;;;;33.70;4.68;;;16.80;99.90;;;;;;2123248;27;20030;-65
2021/07/31 00:38:38;;;;;;;31.15;4.82;;;16.80;99.90;;;;;;2108939;28;20114;-65
2021/07/31 00:39:40;;;;;;;27.45;5.07;;;16.80;99.90;;;;;;2113867;28;20086;-65
2021/07/31 00:40:41;;;;;;;22.17;3.72;;;16.80;99.90;;;;;;2113915;28;20019;-65
2021/07/31 00:41:42;;;;;;;24.77;4.45;;;16.80;99.90;;;;;;2114067;28;20515;-64
2021/07/31 00:42:43;;;;;;;26.63;4.97;;;16.80;99.90;;;;;;2123530;27;20019;-64
2021/07/31 00:43:44;;;;;;;29.40;4.70;;;16.80;99.90;;;;;;2114776;28;20027;-65
2021/07/31 00:44:44;;;;;;;22.20;4.15;;;16.90;99.90;;;;;;2108351;28;20024;-65
2021/07/31 00:45:45;;;;;;;33.13;5.10;;;16.90;99.90;;;;;;2100548;28;20064;-65
2021/07/31 00:46:46;;;;;;;32.45;4.88;;;16.90;99.90;;;;;;2113466;28;20016;-65
2021/07/31 00:47:47;;;;;;;31.17;5.05;;;16.90;99.90;;;;;;2123109;27;20052;-65
2021/07/31 00:48:49;;;;;;;31.90;5.60;;;16.90;99.90;;;;;;2113605;28;20043;-64
2021/07/31 00:49:49;;;;;;;31.33;4.88;;;16.90;99.90;;;;;;2114048;28;20023;-65
2021/07/31 00:50:50;;;;;;;21.65;4.47;;;16.90;99.90;;;;;;2113726;28;20601;-65
2021/07/31 00:51:51;;;;;;;26.23;4.60;;;16.90;99.90;;;;;;2102888;28;20027;-65
2021/07/31 00:52:52;;;;;;;18.65;3.90;;;16.90;99.90;;;;;;2113693;28;20046;-64
2021/07/31 00:53:53;;;;;;;22.70;4.13;;;16.90;99.90;;;;;;2111957;28;20035;-64
2021/07/31 00:54:57;;;;;;;25.13;4.68;;;16.90;99.90;;;;;;2107408;28;20024;-64
2021/07/31 00:55:57;;;;;;;27.42;3.65;;;16.90;99.90;;;;;;2105427;28;20406;-64
2021/07/31 00:56:59;;;;;;;24.63;4.35;;;16.90;99.90;;;;;;2113568;28;20027;-64
2021/07/31 00:57:59;;;;;;;24.95;4.07;;;16.90;99.90;;;;;;2118630;27;20032;-64
2021/07/31 00:59:01;;;;;;;21.25;4.00;;;16.90;99.90;;;;;;2117915;27;20062;-65
2021/07/31 01:00:02;;;;;;;25.17;4.25;;;16.90;99.90;;;;;;2122215;27;20080;-65
2021/07/31 01:01:04;;;;;;;26.92;4.63;;;16.90;99.90;;;;;;2113710;28;20039;-64
2021/07/31 01:02:04;;;;;;;31.30;5.13;;;16.90;99.90;;;;;;2113205;28;20652;-64
2021/07/31 01:03:05;;;;;;;27.08;4.88;;;16.90;99.90;;;;;;2123290;27;20106;-65
2021/07/31 01:04:06;;;;;;;32.08;4.70;;;16.90;99.90;;;;;;2122578;27;20026;-65
2021/07/31 01:05:07;;;;;;;30.67;4.00;;;16.80;99.90;;;;;;2110565;28;20024;-65
2021/07/31 01:06:08;;;;;;;22.88;3.45;;;16.90;99.90;;;;;;2105190;28;20012;-65
2021/07/31 01:07:09;;;;;;;25.85;4.75;;;16.90;99.90;;;;;;2117412;27;20106;-65
2021/07/31 01:08:09;;;;;;;33.88;4.50;;;16.90;99.90;;;;;;2114719;28;20030;-65
2021/07/31 01:09:10;;;;;;;22.05;4.43;;;16.90;99.90;;;;;;2119980;27;20012;-65
2021/07/31 01:10:12;;;;;;;31.25;4.88;;;16.90;99.90;;;;;;2114591;28;20016;-65
2021/07/31 01:11:13;;;;;;;25.63;4.05;;;16.90;99.90;;;;;;2123044;27;20543;-65
2021/07/31 01:12:14;;;;;;;25.42;4.65;;;16.80;99.90;;;;;;2113374;28;20069;-65
2021/07/31 01:13:15;;;;;;;24.77;3.65;;;16.80;99.90;;;;;;2110619;28;20016;-65
2021/07/31 01:14:15;;;;;;;23.25;4.72;;;16.80;99.90;;;;;;2122044;27;20035;-64
2021/07/31 01:15:16;;;;;;;24.40;3.97;;;16.80;99.90;;;;;;2122626;27;20027;-65
2021/07/31 01:16:17;;;;;;;26.02;3.67;;;16.80;99.90;;;;;;2123030;27;20027;-64
2021/07/31 01:17:18;;;;;;;22.83;4.07;;;16.80;99.90;;;;;;2122634;27;20574;-65
2021/07/31 01:18:18;;;;;;;27.30;5.15;;;16.80;99.90;;;;;;2111026;28;20495;-64
2021/07/31 01:19:19;;;;;;;30.05;5.30;;;16.80;99.90;;;;;;2111853;28;20053;-65
2021/07/31 01:20:20;;;;;;;27.60;4.55;;;16.80;99.90;;;;;;2113677;28;20077;-65
2021/07/31 01:21:44;;;;;;;32.55;4.90;;;16.80;99.90;;;;;;2113485;28;20043;-65
2021/07/31 01:22:45;;;;;;;33.92;5.57;;;16.80;99.90;;;;;;2107781;28;20048;-65
2021/07/31 01:23:46;;;;;;;28.48;4.93;;;16.80;99.90;;;;;;2105212;28;20333;-65
2021/07/31 01:24:46;;;;;;;26.92;4.88;;;16.80;99.90;;;;;;2113261;28;20023;-65
2021/07/31 01:25:47;;;;;;;32.45;5.15;;;16.80;99.90;;;;;;2103810;28;20064;-65
2021/07/31 01:26:49;;;;;;;27.57;4.40;;;16.80;99.90;;;;;;2100031;28;20553;-65
2021/07/31 01:27:49;;;;;;;30.60;4.40;;;16.80;99.90;;;;;;2109309;28;20777;-65
2021/07/31 01:28:50;;;;;;;34.17;5.38;;;16.80;99.90;;;;;;2113783;28;20031;-64
2021/07/31 01:29:51;;;;;;;28.63;5.13;;;16.80;99.90;;;;;;2104685;28;20031;-65
2021/07/31 01:30:51;;;;;;;36.40;5.40;;;16.70;99.90;;;;;;2101540;28;20028;-67
2021/07/31 01:31:52;;;;;;;28.50;4.82;;;16.70;99.90;;;;;;2106240;28;20032;-70
2021/07/31 01:32:53;;;;;;;41.60;5.53;;;16.70;99.90;;;;;;2106371;28;20059;-69
2021/07/31 01:33:54;;;;;;;36.83;5.25;;;16.70;99.90;;;;;;2107994;28;20030;-71
2021/07/31 01:34:54;;;;;;;35.42;5.63;;;16.60;99.90;;;;;;2108168;28;20554;-69
2021/07/31 01:35:55;;;;;;;37.67;5.50;;;16.60;99.90;;;;;;2106356;28;20542;-69
2021/07/31 01:36:56;;;;;;;34.20;4.95;;;16.60;99.90;;;;;;2113423;28;20059;-70
2021/07/31 01:37:56;;;;;;;30.55;5.32;;;16.50;99.90;;;;;;2110868;28;20341;-69
2021/07/31 01:38:58;;;;;;;28.35;5.35;;;16.50;99.90;;;;;;2096236;28;20082;-69
2021/07/31 01:39:59;;;;;;;29.70;4.70;;;16.50;99.90;;;;;;2096396;28;20081;-71
2021/07/31 01:41:00;;;;;;;27.35;4.28;;;16.40;99.90;;;;;;2103068;28;20503;-70
2021/07/31 01:42:01;;;;;;;28.73;4.18;;;16.40;99.90;;;;;;2097176;28;20032;-70
2021/07/31 01:43:01;;;;;;;35.38;4.75;;;16.40;99.90;;;;;;2096753;28;20610;-69
2021/07/31 01:44:02;;;;;;;31.13;4.93;;;16.40;99.90;;;;;;2104679;28;20094;-70
2021/07/31 01:45:05;;;;;;;30.45;4.97;;;16.40;99.90;;;;;;2113432;28;20023;-69
2021/07/31 01:46:05;;;;;;;34.53;6.22;;;16.50;99.90;;;;;;2113625;28;20411;-69
2021/07/31 01:47:06;;;;;;;22.90;4.60;;;16.50;99.90;;;;;;2113117;28;20047;-69
2021/07/31 01:48:07;;;;;;;28.63;4.40;;;16.50;99.90;;;;;;2113269;28;20016;-69
2021/07/31 01:49:07;;;;;;;22.88;4.22;;;16.40;99.90;;;;;;2113626;28;20019;-69
2021/07/31 01:50:08;;;;;;;26.58;3.78;;;16.40;99.90;;;;;;2108237;28;20020;-69
2021/07/31 01:51:09;;;;;;;23.00;4.30;;;16.40;99.90;;;;;;2097858;28;20050;-70
2021/07/31 01:52:09;;;;;;;20.45;3.97;;;16.40;99.90;;;;;;2100544;28;20515;-69
2021/07/31 01:53:10;;;;;;;30.77;4.40;;;16.40;99.90;;;;;;2103951;28;20089;-69
2021/07/31 01:54:11;;;;;;;31.17;4.78;;;16.40;99.90;;;;;;2104703;28;20039;-69
2021/07/31 01:55:12;;;;;;;28.05;4.03;;;16.40;99.90;;;;;;2108483;28;20052;-69
2021/07/31 01:56:13;;;;;;;24.05;4.90;;;16.40;99.90;;;;;;2096291;28;20111;-69
2021/07/31 01:57:14;;;;;;;29.58;4.05;;;16.40;99.90;;;;;;2100559;28;20031;-69
2021/07/31 01:58:14;;;;;;;27.25;4.90;;;16.40;99.90;;;;;;2110758;28;20031;-68
2021/07/31 01:59:15;;;;;;;32.08;4.70;;;16.40;99.90;;;;;;2104747;28;20507;-70
2021/07/31 02:00:16;;;;;;;29.33;4.27;;;16.40;99.90;;;;;;2087647;28;20040;-70
2021/07/31 02:01:17;;;;;;;28.20;5.03;;;16.40;99.90;;;;;;2095929;28;20605;-70
2021/07/31 02:02:18;;;;;;;28.50;5.18;;;16.40;99.90;;;;;;2104589;28;20052;-70
2021/07/31 02:03:18;;;;;;;37.00;4.75;;;16.40;99.90;;;;;;2097184;28;20020;-71
2021/07/31 02:04:19;;;;;;;31.05;5.57;;;16.40;99.90;;;;;;2104695;28;20024;-70
2021/07/31 02:05:19;;;;;;;36.75;5.47;;;16.40;99.90;;;;;;2101654;28;20027;-71
2021/07/31 02:06:20;;;;;;;21.05;4.80;;;16.40;99.90;;;;;;2094666;28;20020;-71
2021/07/31 02:07:21;;;;;;;25.98;4.10;;;16.40;99.90;;;;;;2112278;28;20024;-70
2021/07/31 02:08:22;;;;;;;27.25;5.15;;;16.30;99.90;;;;;;2104447;28;20020;-70
2021/07/31 02:09:23;;;;;;;27.83;3.95;;;16.40;99.90;;;;;;2095737;28;20054;-72
2021/07/31 02:10:23;;;;;;;30.75;4.60;;;16.30;99.90;;;;;;2096900;28;20082;-73
2021/07/31 02:11:24;;;;;;;26.02;4.88;;;16.30;99.90;;;;;;2096898;28;20024;-70
2021/07/31 02:12:25;;;;;;;28.23;5.15;;;16.40;99.90;;;;;;2104860;28;20040;-70
2021/07/31 02:13:26;;;;;;;24.85;4.78;;;16.40;99.90;;;;;;2109998;28;20436;-69
2021/07/31 02:14:26;;;;;;;28.55;4.28;;;16.40;99.90;;;;;;2103814;28;20016;-69
2021/07/31 02:15:27;;;;;;;25.00;4.53;;;16.30;99.90;;;;;;2102468;28;20024;-70
2021/07/31 02:16:28;;;;;;;23.70;4.30;;;16.30;99.90;;;;;;2105276;28;20020;-69
2021/07/31 02:17:30;;;;;;;23.55;4.63;;;16.30;99.90;;;;;;2105892;28;20039;-69
2021/07/31 02:18:31;;;;;;;28.85;3.97;;;16.20;99.90;;;;;;2101307;28;20407;-69
2021/07/31 02:19:32;;;;;;;24.70;4.70;;;16.20;99.90;;;;;;2094293;28;20025;-70
2021/07/31 02:20:33;;;;;;;23.33;3.70;;;16.20;99.90;;;;;;2094013;28;20055;-69
2021/07/31 02:21:34;;;;;;;26.92;3.92;;;16.10;99.90;;;;;;2087758;28;20033;-69
2021/07/31 02:22:35;;;;;;;18.38;3.70;;;16.10;99.90;;;;;;2094057;28;20046;-70
2021/07/31 02:23:35;;;;;;;18.52;3.90;;;16.10;99.90;;;;;;2103567;28;20031;-70
2021/07/31 02:24:36;;;;;;;13.57;3.17;;;16.00;99.90;;;;;;2103818;28;20016;-70
2021/07/31 02:25:37;;;;;;;20.17;3.85;;;16.00;99.90;;;;;;2111588;28;20020;-70
2021/07/31 02:26:37;;;;;;;12.75;3.00;;;16.00;99.90;;;;;;2104908;28;20103;-70
2021/07/31 02:27:38;;;;;;;18.10;3.63;;;16.00;99.90;;;;;;2108726;28;20030;-70
2021/07/31 02:28:39;;;;;;;13.50;2.97;;;16.00;99.90;;;;;;2113411;28;20043;-69
2021/07/31 02:29:39;;;;;;;17.27;3.00;;;16.00;99.90;;;;;;2104162;28;20043;-70
2021/07/31 02:30:40;;;;;;;18.23;3.78;;;16.00;99.90;;;;;;2094881;28;20116;-69
2021/07/31 02:31:41;;;;;;;17.08;3.45;;;16.00;99.90;;;;;;2097351;28;20034;-70
2021/07/31 02:32:41;;;;;;;19.90;4.22;;;16.00;99.90;;;;;;2104768;28;20040;-70
2021/07/31 02:33:42;;;;;;;19.92;3.35;;;16.00;99.90;;;;;;2096724;28;20393;-70
2021/07/31 02:34:43;;;;;;;28.35;4.10;;;16.00;99.90;;;;;;2099711;28;20024;-69
2021/07/31 02:35:44;;;;;;;23.85;3.78;;;16.10;99.90;;;;;;2095784;28;20075;-69
2021/07/31 02:36:44;;;;;;;16.55;3.38;;;16.10;99.90;;;;;;2102045;28;20028;-70
2021/07/31 02:37:45;;;;;;;18.42;3.70;;;16.10;99.90;;;;;;2112065;28;20064;-70
2021/07/31 02:38:45;;;;;;;17.98;3.40;;;16.10;99.90;;;;;;2096414;28;20028;-70
2021/07/31 02:39:46;;;;;;;28.38;3.60;;;16.10;99.90;;;;;;2095490;28;20025;-70
2021/07/31 02:40:47;;;;;;;17.92;4.18;;;16.10;99.90;;;;;;2098096;28;20021;-70
2021/07/31 02:41:47;;;;;;;24.27;4.00;;;16.10;99.90;;;;;;2097536;28;20035;-70
2021/07/31 02:42:48;;;;;;;23.63;4.97;;;16.20;99.90;;;;;;2105329;28;20023;-69
2021/07/31 02:43:49;;;;;;;21.67;3.85;;;16.20;99.90;;;;;;2113325;28;20315;-70
2021/07/31 02:44:49;;;;;;;27.63;5.10;;;16.20;99.90;;;;;;2112769;28;20096;-70
2021/07/31 02:45:50;;;;;;;22.73;3.78;;;16.20;99.90;;;;;;2101476;28;20073;-68
2021/07/31 02:46:51;;;;;;;25.65;5.88;;;16.20;99.90;;;;;;2087374;28;20021;-70
2021/07/31 02:47:51;;;;;;;24.80;3.92;;;16.20;99.90;;;;;;2098741;28;20020;-70
2021/07/31 02:48:52;;;;;;;23.42;3.60;;;16.10;99.90;;;;;;2104840;28;20031;-69
2021/07/31 02:49:53;;;;;;;26.02;4.88;;;16.10;99.90;;;;;;2104548;28;20056;-69
2021/07/31 02:51:04;;;;;;;26.65;4.50;;;16.10;99.90;;;;;;2095740;28;20033;-70
2021/07/31 02:52:05;;;;;;;32.63;4.28;;;16.10;99.90;;;;;;2098570;28;20353;-71
2021/07/31 02:53:05;;;;;;;29.67;5.03;;;16.10;99.90;;;;;;2112663;28;20034;-70
2021/07/31 02:54:06;;;;;;;31.33;4.40;;;16.10;99.90;;;;;;2104010;28;20473;-69
2021/07/31 02:55:07;;;;;;;21.25;3.80;;;16.10;99.90;;;;;;2099885;28;20591;-69
2021/07/31 02:56:08;;;;;;;28.45;5.22;;;16.10;99.90;;;;;;2095762;28;20025;-69
2021/07/31 02:57:08;;;;;;;31.42;5.97;;;16.10;99.90;;;;;;2104293;28;20033;-70
2021/07/31 02:58:09;;;;;;;25.17;4.05;;;16.10;99.90;;;;;;2105872;28;20056;-70
2021/07/31 02:59:09;;;;;;;26.42;4.78;;;16.10;99.90;;;;;;2113080;28;20110;-72
2021/07/31 03:00:11;;;;;;;22.08;4.22;;;16.10;99.90;;;;;;2109464;28;20024;-70
2021/07/31 03:01:11;;;;;;;24.27;4.22;;;16.00;99.90;;;;;;2093569;28;20024;-70
2021/07/31 03:02:12;;;;;;;22.38;4.05;;;16.10;99.90;;;;;;2102657;28;20115;-70
2021/07/31 03:03:13;;;;;;;27.15;5.25;;;16.00;99.90;;;;;;2102435;28;20026;-70
2021/07/31 03:04:15;;;;;;;18.63;3.88;;;16.00;99.90;;;;;;2104355;28;20435;-70
2021/07/31 03:05:16;;;;;;;26.63;4.90;;;16.10;99.90;;;;;;2108993;28;20016;-70
2021/07/31 03:06:17;;;;;;;18.20;3.53;;;16.00;99.90;;;;;;2104725;28;20511;-70
2021/07/31 03:07:18;;;;;;;23.05;3.92;;;16.00;99.90;;;;;;2099514;28;20016;-69
2021/07/31 03:08:18;;;;;;;21.63;4.05;;;16.00;99.90;;;;;;2095816;28;20024;-69
2021/07/31 03:09:19;;;;;;;22.67;4.10;;;16.00;99.90;;;;;;2093467;28;20536;-70
2021/07/31 03:10:20;;;;;;;22.42;4.57;;;15.90;99.90;;;;;;2102199;28;20028;-69
2021/07/31 03:11:22;;;;;;;22.42;3.78;;;15.90;99.90;;;;;;2106752;28;20062;-69
2021/07/31 03:12:22;;;;;;;28.83;4.07;;;15.90;99.90;;;;;;2112888;28;20019;-70
2021/07/31 03:13:23;;;;;;;20.27;3.85;;;16.00;99.90;;;;;;2103998;28;20384;-69
2021/07/31 03:14:24;;;;;;;23.60;4.25;;;16.00;99.90;;;;;;2095576;28;20021;-70
2021/07/31 03:15:24;;;;;;;19.30;3.65;;;16.00;99.90;;;;;;2100559;28;20030;-70
2021/07/31 03:16:25;;;;;;;23.52;4.50;;;16.00;99.90;;;;;;2095424;28;20021;-69
2021/07/31 03:17:26;;;;;;;26.75;3.95;;;16.00;99.90;;;;;;2101537;28;20496;-69
2021/07/31 03:18:27;;;;;;;21.88;3.70;;;16.00;99.90;;;;;;2095695;28;20209;-70
2021/07/31 03:19:27;;;;;;;15.70;3.78;;;16.00;99.90;;;;;;2097164;28;20042;-70
2021/07/31 03:20:28;;;;;;;19.05;4.03;;;16.00;99.90;;;;;;2095424;28;20032;-70
2021/07/31 03:21:29;;;;;;;22.17;3.95;;;16.00;99.90;;;;;;2087260;28;20056;-70
2021/07/31 03:22:29;;;;;;;24.30;5.05;;;16.00;99.90;;;;;;2095487;28;20029;-70
2021/07/31 03:23:30;;;;;;;17.10;4.10;;;15.90;99.90;;;;;;2095643;28;20029;-69
2021/07/31 03:24:32;;;;;;;25.55;4.32;;;15.90;99.90;;;;;;2098839;28;20020;-69
2021/07/31 03:25:32;;;;;;;15.05;3.80;;;15.90;99.90;;;;;;2094522;28;20025;-70
2021/07/31 03:26:33;;;;;;;21.40;3.08;;;15.90;99.90;;;;;;2095480;28;20025;-70
2021/07/31 03:27:33;;;;;;;15.48;3.45;;;15.90;99.90;;;;;;2103517;28;20020;-69
2021/07/31 03:28:34;;;;;;;17.17;3.28;;;15.90;99.90;;;;;;2096443;28;20079;-70
2021/07/31 03:29:35;;;;;;;19.73;3.28;;;15.90;99.90;;;;;;2095398;28;20112;-70
2021/07/31 03:30:42;;;;;;;11.48;2.63;;;15.80;99.90;;;;;;2110691;28;20051;-69
2021/07/31 03:31:43;;;;;;;19.42;4.22;;;15.80;99.90;;;;;;2103885;28;20400;-70
2021/07/31 03:32:44;;;;;;;19.77;3.33;;;15.80;99.90;;;;;;2103863;28;20054;-69
2021/07/31 03:33:44;;;;;;;14.15;2.67;;;15.80;99.90;;;;;;2103875;28;20114;-70
2021/07/31 03:34:45;;;;;;;14.95;3.55;;;15.80;99.90;;;;;;2097211;28;20602;-70
2021/07/31 03:35:46;;;;;;;24.42;3.85;;;15.90;99.90;;;;;;2104628;28;20572;-69
2021/07/31 03:36:51;;;;;;;23.63;3.95;;;15.80;99.90;;;;;;2111200;28;20108;-70
2021/07/31 03:37:52;;;;;;;16.45;3.22;;;15.90;99.90;;;;;;2103237;28;20032;-70
2021/07/31 03:38:52;;;;;;;21.63;2.88;;;15.80;99.90;;;;;;2104575;28;20450;-70
2021/07/31 03:39:53;;;;;;;17.85;2.97;;;15.90;99.90;;;;;;2109187;28;20024;-69
2021/07/31 03:40:54;;;;;;;13.73;3.03;;;15.90;99.90;;;;;;2103811;28;20107;-70
2021/07/31 03:41:56;;;;;;;19.05;3.17;;;15.90;99.90;;;;;;2095032;28;20435;-70
2021/07/31 03:42:57;;;;;;;;;;;15.90;99.90;;;;;;2104161;28;20020;-69
2021/07/31 03:43:57;;;;;;;17.33;3.67;;;15.90;99.90;;;;;;2102040;28;20450;-69
2021/07/31 03:44:58;;;;;;;19.48;3.78;;;15.90;99.90;;;;;;2095037;28;20027;-70
2021/07/31 03:45:59;;;;;;;16.70;2.80;;;15.80;99.90;;;;;;2109881;28;20415;-69
2021/07/31 03:46:59;;;;;;;19.42;3.40;;;15.80;99.90;;;;;;2112167;28;20019;-69
2021/07/31 03:48:00;;;;;;;18.05;3.00;;;15.90;99.90;;;;;;2112297;28;20020;-70
2021/07/31 03:49:01;;;;;;;17.67;3.10;;;15.90;99.90;;;;;;2104738;28;20385;-70
2021/07/31 03:50:01;;;;;;;13.98;3.88;;;15.90;99.90;;;;;;2096835;28;20066;-70
2021/07/31 03:51:02;;;;;;;19.83;3.38;;;15.90;99.90;;;;;;2103682;28;20016;-69
2021/07/31 03:52:03;;;;;;;20.27;3.40;;;15.90;99.90;;;;;;2112720;28;20024;-70
2021/07/31 03:53:04;;;;;;;11.48;2.92;;;15.80;99.90;;;;;;2105292;28;20131;-69
2021/07/31 03:54:05;;;;;;;17.50;3.00;;;15.80;99.90;;;;;;2105523;28;20047;-70
2021/07/31 03:55:06;;;;;;;23.20;3.75;;;15.80;99.90;;;;;;2114577;28;20019;-70
2021/07/31 03:56:10;;;;;;;19.60;3.60;;;15.80;99.90;;;;;;2105506;28;20359;-69
2021/07/31 03:57:10;;;;;;;25.77;4.07;;;15.90;99.90;;;;;;2099913;28;20088;-69
2021/07/31 03:58:11;;;;;;;22.30;3.83;;;15.90;99.90;;;;;;2108979;28;20438;-69
2021/07/31 03:59:12;;;;;;;20.77;3.42;;;15.90;99.90;;;;;;2109959;28;20531;-69
2021/07/31 04:00:13;;;;;;;28.27;4.07;;;16.00;99.90;;;;;;2110314;28;20091;-70
2021/07/31 04:01:21;;;;;;;32.35;5.03;;;16.00;99.90;;;;;;2105840;28;20035;-71
2021/07/31 04:02:22;;;;;;;25.92;4.40;;;16.10;99.90;;;;;;2098577;28;20593;-69
2021/07/31 04:03:23;;;;;;;25.02;4.50;;;16.10;99.90;;;;;;2104950;28;20055;-69
2021/07/31 04:04:23;;;;;;;30.02;5.32;;;16.10;99.90;;;;;;2105254;28;20072;-69
2021/07/31 04:05:24;;;;;;;17.75;3.15;;;16.10;99.90;;;;;;2100063;28;20021;-69
2021/07/31 04:06:25;;;;;;;19.75;3.33;;;16.10;99.90;;;;;;2096712;28;20016;-70
2021/07/31 04:07:25;;;;;;;24.48;3.72;;;16.10;99.90;;;;;;2096770;28;20028;-69
2021/07/31 04:08:26;;;;;;;23.60;3.22;;;16.10;99.90;;;;;;2106067;28;20020;-69
2021/07/31 04:09:27;;;;;;;17.15;3.13;;;16.10;99.90;;;;;;2114108;28;20514;-70
2021/07/31 04:10:27;;;;;;;23.45;3.42;;;16.10;99.90;;;;;;2100791;28;20023;-70
2021/07/31 04:11:28;;;;;;;22.48;4.20;;;16.10;99.90;;;;;;2093714;28;20034;-70
2021/07/31 04:12:29;;;;;;;21.83;4.13;;;16.10;99.90;;;;;;2105031;28;20519;-69
2021/07/31 04:13:29;;;;;;;16.80;3.22;;;16.10;99.90;;;;;;2105193;28;20495;-69
2021/07/31 04:14:30;;;;;;;22.55;3.63;;;16.10;99.90;;;;;;2097065;28;20017;-70
2021/07/31 04:15:31;;;;;;;17.83;4.13;;;16.10;99.90;;;;;;2098585;28;20025;-69
2021/07/31 04:16:33;;;;;;;29.48;4.00;;;16.20;99.90;;;;;;2090829;28;20536;-70
2021/07/31 04:17:33;;;;;;;31.67;4.28;;;16.20;99.90;;;;;;2100905;28;20032;-69
2021/07/31 04:18:34;;;;;;;24.00;4.10;;;16.20;99.90;;;;;;2102565;28;20024;-69
2021/07/31 04:19:35;;;;;;;25.98;4.15;;;16.20;99.90;;;;;;2096773;28;20032;-70
2021/07/31 04:20:35;;;;;;;25.15;3.42;;;16.20;99.90;;;;;;2089976;28;20049;-69
2021/07/31 04:21:36;;;;;;;23.95;3.38;;;16.20;99.90;;;;;;2096429;28;20143;-69
2021/07/31 04:22:37;;;;;;;22.10;4.28;;;16.20;99.90;;;;;;2105146;28;20023;-69
2021/07/31 04:23:37;;;;;;;22.13;3.83;;;16.20;99.90;;;;;;2103942;28;20032;-68
2021/07/31 04:24:38;;;;;;;17.90;3.58;;;16.20;99.90;;;;;;2106114;28;20051;-70
2021/07/31 04:25:39;;;;;;;21.17;3.97;;;16.30;99.90;;;;;;2107092;28;20035;-69
2021/07/31 04:26:39;;;;;;;18.17;3.65;;;16.30;99.90;;;;;;2105246;28;20499;-69
2021/07/31 04:27:40;;;;;;;17.52;3.45;;;16.20;99.90;;;;;;2104926;28;20028;-70
2021/07/31 04:28:42;;;;;;;21.95;3.03;;;16.20;99.90;;;;;;2097236;28;20020;-70
2021/07/31 04:29:42;;;;;;;24.13;4.03;;;16.20;99.90;;;;;;2114212;28;20023;-70
2021/07/31 04:30:43;;;;;;;21.15;3.72;;;16.10;99.90;;;;;;2105624;28;20282;-68
2021/07/31 04:31:45;;;;;;;31.23;4.53;;;16.10;99.90;;;;;;2103200;28;20111;-70
2021/07/31 04:32:45;;;;;;;21.23;3.22;;;16.00;99.90;;;;;;2110389;28;20028;-70
2021/07/31 04:33:46;;;;;;;22.02;2.88;;;15.90;99.90;;;;;;2104957;28;20414;-71
2021/07/31 04:34:47;;;;;;;15.60;3.03;;;15.80;99.90;;;;;;2097843;28;20527;-70
2021/07/31 04:35:47;;;;;;;22.92;3.10;;;15.70;99.90;;;;;;2096897;28;20025;-71
2021/07/31 04:36:49;;;;;;;26.83;3.58;;;15.70;99.90;;;;;;2103527;28;20047;-72
2021/07/31 04:37:49;;;;;;;34.42;4.45;;;15.70;99.90;;;;;;2113905;28;20024;-71
2021/07/31 04:38:50;;;;;;;20.20;3.47;;;15.70;99.90;;;;;;2114375;28;20103;-70
2021/07/31 04:39:51;;;;;;;18.23;3.78;;;15.70;99.90;;;;;;2109544;28;20020;-70
2021/07/31 04:40:51;;;;;;;25.17;3.90;;;15.70;99.90;;;;;;2113778;28;20508;-70
2021/07/31 04:41:52;;;;;;;22.00;3.38;;;15.70;99.90;;;;;;2113357;28;20495;-70
2021/07/31 04:42:52;;;;;;;22.20;4.15;;;15.70;99.90;;;;;;2113841;28;20023;-70
2021/07/31 04:43:53;;;;;;;16.48;3.15;;;15.70;99.90;;;;;;2105088;28;20055;-70
2021/07/31 04:44:54;;;;;;;16.00;2.90;;;15.70;99.90;;;;;;2101075;28;20099;-70
2021/07/31 04:45:54;;;;;;;16.25;3.08;;;15.60;99.90;;;;;;2097112;28;20017;-69
2021/07/31 04:46:55;;;;;;;15.65;2.50;;;15.60;99.90;;;;;;2112181;28;20019;-70
2021/07/31 04:47:56;;;;;;;19.30;3.20;;;15.60;99.90;;;;;;2107662;28;20024;-70
2021/07/31 04:48:56;;;;;;;18.02;3.63;;;15.50;99.90;;;;;;2109851;28;20062;-70
2021/07/31 04:49:57;;;;;;;15.00;2.53;;;15.50;99.90;;;;;;2110007;28;20024;-69
2021/07/31 04:51:00;;;;;;;15.90;3.72;;;15.50;99.90;;;;;;2105698;28;20020;-69
2021/07/31 04:52:00;;;;;;;19.27;3.45;;;15.60;99.90;;;;;;2105318;28;20554;-70
2021/07/31 04:53:01;;;;;;;19.73;3.13;;;15.50;99.90;;;;;;2106037;28;20020;-70
2021/07/31 04:54:02;;;;;;;24.75;3.47;;;15.60;99.90;;;;;;2104775;28;20027;-70
2021/07/31 04:55:04;;;;;;;22.17;4.20;;;15.60;99.90;;;;;;2111891;28;20100;-70
2021/07/31 04:56:04;;;;;;;20.02;3.10;;;15.60;99.90;;;;;;2113766;28;20034;-70
2021/07/31 04:57:05;;;;;;;20.83;3.00;;;15.60;99.90;;;;;;2107491;28;20406;-71
2021/07/31 04:58:06;;;;;;;22.77;3.28;;;15.60;99.90;;;;;;2104463;28;20056;-70
2021/07/31 04:59:06;;;;;;;18.10;2.88;;;15.60;99.90;;;;;;2109387;28;20529;-70
2021/07/31 05:00:08;;;;;;;14.40;2.72;;;15.60;99.90;;;;;;2110434;28;20027;-70
2021/07/31 05:01:08;;;;;;;21.35;3.75;;;15.50;99.90;;;;;;2105624;28;20032;-70
2021/07/31 05:02:09;;;;;;;16.10;3.10;;;15.50;99.90;;;;;;2111116;28;20136;-70
2021/07/31 05:03:10;;;;;;;20.23;2.75;;;15.60;99.90;;;;;;2109897;28;20494;-70
2021/07/31 05:04:10;;;;;;;18.17;3.05;;;15.60;99.90;;;;;;2111669;28;20024;-70
2021/07/31 05:05:11;;;;;;;16.90;3.30;;;15.60;99.90;;;;;;2107801;28;20066;-70
2021/07/31 05:06:12;;;;;;;21.42;3.30;;;15.60;99.90;;;;;;2096565;28;20404;-70
2021/07/31 05:07:12;;;;;;;22.00;3.80;;;15.60;99.90;;;;;;2096259;28;20040;-70
2021/07/31 05:08:14;;;;;;;20.67;3.85;;;15.60;99.90;;;;;;2103883;28;20020;-69
2021/07/31 05:09:14;;;;;;;19.85;3.55;;;15.60;99.90;;;;;;2107257;28;20039;-69
2021/07/31 05:10:15;;;;;;;21.23;3.15;;;15.70;99.90;;;;;;2113245;28;20102;-70
2021/07/31 05:11:18;;;;;;;15.23;3.17;;;15.70;99.90;;;;;;2104801;28;20500;-69
2021/07/31 05:12:19;;;;;;;17.20;3.60;;;15.70;99.90;;;;;;2101165;28;20021;-70
2021/07/31 05:13:19;;;;;;;20.92;3.10;;;15.70;99.90;;;;;;2105406;28;20020;-70